Time;durP1;ratioP1;P1;durP2;ratioP2;P2;SDS_P1;SDS_P2;PMS_P1;PMS_P2;Temp;Humidity;BMP_temperature;BMP_pressure;BME280_temperature;BME280_humidity;BME280_pressure;Samples;Min_cycle;Max_cycle;Signal;HPM_P1;HPM_P2
2024/01/14 00:00:44;;;;;;;;;59.75;49.50;;;;;5.86;100.00;101414.69;2097092;28;46233;-72
2024/01/14 00:01:45;;;;;;;;;56.50;47.50;;;;;5.84;100.00;101403.25;2097825;28;46479;-73
2024/01/14 00:02:45;;;;;;;;;57.50;47.00;;;;;5.86;100.00;101417.34;2097854;28;46073;-72
2024/01/14 00:03:45;;;;;;;;;60.00;48.00;;;;;5.84;100.00;101412.06;2097427;28;46047;-74
2024/01/14 00:04:46;;;;;;;;;64.25;50.50;;;;;5.82;100.00;101402.34;2097811;28;46416;-73
2024/01/14 00:05:46;;;;;;;;;70.00;51.00;;;;;5.82;100.00;101403.22;2101476;28;45454;-73
2024/01/14 00:06:46;;;;;;;;;57.50;49.00;;;;;5.82;100.00;101400.59;2106099;27;45817;-73
2024/01/14 00:07:47;;;;;;;;;56.50;47.50;;;;;5.81;100.00;101390.94;2104904;28;47200;-73
2024/01/14 00:08:47;;;;;;;;;58.25;47.75;;;;;5.83;100.00;101394.47;2102633;27;46225;-73
2024/01/14 00:09:47;;;;;;;;;58.75;46.50;;;;;5.82;100.00;101397.97;2098059;28;45127;-72
2024/01/14 00:10:48;;;;;;;;;58.00;48.50;;;;;5.84;100.00;101391.00;2097224;28;45058;-73
2024/01/14 00:11:49;;;;;;;;;55.75;46.50;;;;;5.86;100.00;101388.38;2097183;28;48450;-74
2024/01/14 00:12:50;;;;;;;;;58.00;49.00;;;;;5.88;100.00;101392.78;2091790;28;46960;-73
2024/01/14 00:13:50;;;;;;;;;61.20;48.20;;;;;5.86;100.00;101389.25;2093988;28;46529;-74
2024/01/14 00:14:51;;;;;;;;;60.25;48.50;;;;;5.87;100.00;101385.75;2097025;28;46149;-72
2024/01/14 00:15:51;;;;;;;;;60.75;50.50;;;;;5.89;100.00;101388.38;2097496;28;46215;-74
2024/01/14 00:16:51;;;;;;;;;58.25;47.25;;;;;5.89;100.00;101378.72;2097473;28;46026;-74
2024/01/14 00:17:52;;;;;;;;;60.25;48.75;;;;;5.86;100.00;101381.34;2097583;28;46739;-74
2024/01/14 00:18:52;;;;;;;;;58.00;47.50;;;;;5.88;100.00;101379.59;2097092;28;45047;-74
2024/01/14 00:19:53;;;;;;;;;59.50;49.00;;;;;5.89;100.00;101373.47;2096660;28;46232;-73
2024/01/14 00:20:53;;;;;;;;;52.00;45.00;;;;;5.90;100.00;101374.38;2097965;28;46029;-74
2024/01/14 00:21:53;;;;;;;;;60.25;46.75;;;;;5.89;100.00;101369.94;2097583;28;46189;-72
2024/01/14 00:22:53;;;;;;;;;61.75;47.75;;;;;5.89;100.00;101369.94;2097822;28;45634;-73
2024/01/14 00:23:54;;;;;;;;;63.75;50.00;;;;;5.86;100.00;101369.94;2097253;28;46224;-73
2024/01/14 00:24:55;;;;;;;;;56.40;46.20;;;;;5.85;100.00;101362.91;2097926;28;46639;-73
2024/01/14 00:25:56;;;;;;;;;52.75;44.50;;;;;5.82;100.00;101365.47;2097567;28;46979;-73
2024/01/14 00:26:56;;;;;;;;;54.25;44.00;;;;;5.85;100.00;101363.78;2096121;28;45752;-74
2024/01/14 00:27:56;;;;;;;;;57.75;46.50;;;;;5.84;100.00;101358.47;2097336;28;45981;-73
2024/01/14 00:28:58;;;;;;;;;60.75;48.00;;;;;5.75;100.00;101363.69;2097813;28;45460;-73
2024/01/14 00:30:00;;;;;;;;;57.60;44.60;;;;;5.72;100.00;101358.41;2094333;28;46646;-74
2024/01/14 00:31:00;;;;;;;;;59.60;46.00;;;;;5.71;100.00;101354.84;2097628;28;46225;-73
2024/01/14 00:32:00;;;;;;;;;50.50;41.75;;;;;5.69;100.00;101347.81;2097901;28;45882;-73
2024/01/14 00:33:01;;;;;;;;;60.50;45.50;;;;;5.69;100.00;101355.72;2092786;28;45659;-74
2024/01/14 00:34:01;;;;;;;;;47.75;41.50;;;;;5.67;100.00;101345.16;2095264;28;45568;-74
2024/01/14 00:35:02;;;;;;;;;57.25;47.00;;;;;5.66;100.00;101342.53;2094969;28;46313;-75
2024/01/14 00:36:03;;;;;;;;;58.50;49.00;;;;;5.68;100.00;101338.16;2097351;28;45658;-73
2024/01/14 00:37:03;;;;;;;;;58.80;47.40;;;;;5.69;100.00;101342.53;2095084;28;46749;-74
2024/01/14 00:38:04;;;;;;;;;60.25;47.75;;;;;5.68;100.00;101338.16;2097539;28;46779;-72
2024/01/14 00:39:04;;;;;;;;;60.25;45.75;;;;;5.67;100.00;101339.91;2097570;28;45643;-73
2024/01/14 00:40:07;;;;;;;;;60.75;47.50;;;;;5.67;100.00;101336.41;2097352;28;46810;-72
2024/01/14 00:41:07;;;;;;;;;58.80;46.40;;;;;5.65;100.00;101335.50;2096808;28;46236;-72
2024/01/14 00:42:08;;;;;;;;;55.75;44.00;;;;;5.66;100.00;101332.88;2095820;28;45574;-72
2024/01/14 00:43:08;;;;;;;;;58.00;47.00;;;;;5.66;100.00;101338.16;2096727;28;46067;-74
2024/01/14 00:44:08;;;;;;;;;51.50;43.00;;;;;5.67;100.00;101328.50;2097585;28;45563;-73
2024/01/14 00:45:09;;;;;;;;;53.25;41.50;;;;;5.69;100.00;101332.91;2096939;28;45674;-73
2024/01/14 00:46:09;;;;;;;;;55.00;46.75;;;;;5.70;100.00;101326.75;2096244;28;45636;-73
2024/01/14 00:47:09;;;;;;;;;56.50;46.00;;;;;5.71;100.00;101328.53;2096533;28;46828;-72
2024/01/14 00:48:10;;;;;;;;;56.50;46.50;;;;;5.71;100.00;101322.38;2097353;28;46600;-73
2024/01/14 00:49:10;;;;;;;;;50.50;44.25;;;;;5.72;100.00;101324.16;2097750;28;46003;-73
2024/01/14 00:50:11;;;;;;;;;52.50;43.00;;;;;5.73;100.00;101324.16;2098123;28;45029;-73
2024/01/14 00:51:11;;;;;;;;;53.25;44.50;;;;;5.72;100.00;101321.53;2097378;28;46329;-73
2024/01/14 00:52:11;;;;;;;;;52.50;43.00;;;;;5.74;100.00;101312.75;2097491;28;45189;-73
2024/01/14 00:53:12;;;;;;;;;46.00;41.75;;;;;5.75;100.00;101316.28;2096708;28;46445;-73
2024/01/14 00:54:12;;;;;;;;;51.75;45.00;;;;;5.74;100.00;101307.50;2097371;28;45137;-74
2024/01/14 00:55:13;;;;;;;;;58.00;47.00;;;;;5.74;100.00;101310.13;2096066;28;46181;-74
2024/01/14 00:56:13;;;;;;;;;54.75;45.25;;;;;5.73;100.00;101310.13;2096807;28;45423;-74
2024/01/14 00:57:14;;;;;;;;;49.75;41.50;;;;;5.72;100.00;101305.72;2097184;28;46483;-73
2024/01/14 00:58:14;;;;;;;;;51.25;42.00;;;;;5.71;100.00;101304.81;2095928;28;46171;-74
2024/01/14 00:59:14;;;;;;;;;49.00;38.75;;;;;5.69;100.00;101297.78;2097630;28;46264;-73
2024/01/14 01:00:15;;;;;;;;;49.00;42.25;;;;;5.69;100.00;101298.66;2092396;28;45006;-73
2024/01/14 01:01:15;;;;;;;;;49.25;40.50;;;;;5.69;100.00;101290.75;2096786;28;46278;-74
2024/01/14 01:02:16;;;;;;;;;57.00;44.25;;;;;5.73;100.00;101286.44;2097308;28;46360;-73
2024/01/14 01:03:16;;;;;;;;;50.00;44.00;;;;;5.69;100.00;101289.88;2097218;28;45139;-74
2024/01/14 01:04:16;;;;;;;;;48.50;41.75;;;;;5.67;100.00;101281.97;2097419;28;45902;-72
2024/01/14 01:05:17;;;;;;;;;52.75;44.00;;;;;5.64;100.00;101279.31;2096806;28;46396;-74
2024/01/14 01:06:17;;;;;;;;;48.25;40.00;;;;;5.61;100.00;101285.47;2097216;28;45498;-75
2024/01/14 01:07:17;;;;;;;;;47.50;40.50;;;;;5.60;100.00;101283.69;2096587;28;46865;-72
2024/01/14 01:08:18;;;;;;;;;43.50;37.50;;;;;5.60;100.00;101280.19;2088442;28;45053;-74
2024/01/14 01:09:18;;;;;;;;;43.25;37.00;;;;;5.60;100.00;101280.19;2096831;28;45436;-74
2024/01/14 01:10:18;;;;;;;;;50.00;41.25;;;;;5.59;100.00;101289.84;2097378;28;45452;-73
2024/01/14 01:11:19;;;;;;;;;43.00;37.00;;;;;5.59;100.00;101283.69;2097011;28;45898;-73
2024/01/14 01:12:19;;;;;;;;;50.50;39.50;;;;;5.60;100.00;101280.19;2097227;28;45237;-73
2024/01/14 01:13:19;;;;;;;;;56.00;44.75;;;;;5.61;100.00;101287.22;2096557;28;46719;-72
2024/01/14 01:14:20;;;;;;;;;48.50;42.25;;;;;5.63;100.00;101281.94;2096051;28;46187;-74
2024/01/14 01:15:20;;;;;;;;;39.00;37.25;;;;;5.64;100.00;101281.09;2088495;28;46285;-73
2024/01/14 01:16:20;;;;;;;;;50.50;42.50;;;;;5.61;100.00;101274.94;2087289;28;46555;-73
2024/01/14 01:17:21;;;;;;;;;45.00;40.00;;;;;5.60;100.00;101281.06;2096719;28;46532;-74
2024/01/14 01:18:21;;;;;;;;;37.25;31.75;;;;;5.59;100.00;101278.44;2097133;28;45438;-73
2024/01/14 01:19:21;;;;;;;;;56.50;42.50;;;;;5.59;100.00;101281.94;2097116;28;46263;-73
2024/01/14 01:20:22;;;;;;;;;54.75;44.75;;;;;5.55;100.00;101279.25;2096580;28;45529;-73
2024/01/14 01:21:22;;;;;;;;;39.75;36.00;;;;;5.52;100.00;101280.13;2097187;28;46138;-73
2024/01/14 01:22:22;;;;;;;;;44.25;41.25;;;;;5.52;100.00;101279.22;2097109;28;46273;-74
2024/01/14 01:23:23;;;;;;;;;44.50;39.00;;;;;5.51;100.00;101283.63;2096747;28;46746;-73
2024/01/14 01:24:23;;;;;;;;;40.25;37.25;;;;;5.50;100.00;101286.25;2097357;28;45473;-72
2024/01/14 01:25:23;;;;;;;;;50.00;42.00;;;;;5.48;100.00;101291.50;2096216;28;46201;-74
2024/01/14 01:26:24;;;;;;;;;51.00;40.75;;;;;5.48;100.00;101294.13;2097093;28;46559;-73
2024/01/14 01:27:25;;;;;;;;;47.50;37.75;;;;;5.48;100.00;101298.50;2090649;28;46495;-75
2024/01/14 01:28:26;;;;;;;;;41.20;34.20;;;;;5.48;100.00;101294.13;2092869;28;46433;-72
2024/01/14 01:29:26;;;;;;;;;40.75;37.00;;;;;5.44;100.00;101302.84;2096876;28;46478;-73
2024/01/14 01:30:26;;;;;;;;;46.50;38.50;;;;;5.44;100.00;101297.59;2097128;28;46597;-73
2024/01/14 01:31:27;;;;;;;;;40.75;37.75;;;;;5.43;100.00;101302.84;2095459;28;45827;-73
2024/01/14 01:32:27;;;;;;;;;36.00;32.75;;;;;5.42;100.00;101301.97;2097454;28;46865;-73
2024/01/14 01:33:27;;;;;;;;;43.00;35.25;;;;;5.40;100.00;101292.28;2096199;28;47010;-73
2024/01/14 01:34:28;;;;;;;;;44.75;38.00;;;;;5.39;100.00;101301.06;2096778;28;46289;-73
2024/01/14 01:35:28;;;;;;;;;40.75;38.00;;;;;5.36;100.00;101294.03;2097567;28;46601;-73
2024/01/14 01:36:28;;;;;;;;;37.00;33.50;;;;;5.35;100.00;101297.53;2096382;28;45517;-73
2024/01/14 01:37:29;;;;;;;;;43.00;40.00;;;;;5.35;100.00;101297.53;2092543;28;46162;-74
2024/01/14 01:38:29;;;;;;;;;36.25;34.25;;;;;5.32;100.00;101293.09;2097150;28;45940;-73
2024/01/14 01:39:30;;;;;;;;;40.75;36.00;;;;;5.31;100.00;101293.09;2097147;28;46001;-73
2024/01/14 01:40:31;;;;;;;;;41.80;38.00;;;;;5.31;100.00;101291.34;2091412;28;47145;-74
2024/01/14 01:41:31;;;;;;;;;38.50;37.00;;;;;5.32;100.00;101293.09;2096290;28;46808;-74
2024/01/14 01:42:34;;;;;;;;;44.50;39.25;;;;;5.34;100.00;101293.13;2096756;28;45682;-75
2024/01/14 01:43:34;;;;;;;;;43.60;37.40;;;;;5.34;100.00;101292.25;2097127;28;45306;-74
2024/01/14 01:44:35;;;;;;;;;45.50;38.50;;;;;5.32;100.00;101290.47;2096736;28;46353;-74
2024/01/14 01:45:35;;;;;;;;;44.25;37.25;;;;;5.34;100.00;101287.88;2096193;28;47172;-72
2024/01/14 01:46:36;;;;;;;;;40.25;38.00;;;;;5.34;100.00;101285.25;2096880;28;46743;-73
2024/01/14 01:47:36;;;;;;;;;44.25;39.25;;;;;5.36;100.00;101286.13;2096077;28;46369;-73
2024/01/14 01:48:37;;;;;;;;;39.50;33.75;;;;;5.36;100.00;101288.75;2088166;28;46139;-73
2024/01/14 01:49:37;;;;;;;;;45.75;39.00;;;;;5.38;100.00;101284.38;2095408;28;45068;-73
2024/01/14 01:50:38;;;;;;;;;41.50;38.00;;;;;5.40;100.00;101281.75;2095347;28;46479;-73
2024/01/14 01:51:40;;;;;;;;;42.50;38.75;;;;;5.42;100.00;101274.75;2097046;28;45230;-73
2024/01/14 01:52:41;;;;;;;;;40.60;34.80;;;;;5.45;100.00;101278.28;2096183;28;46943;-73
2024/01/14 01:53:42;;;;;;;;;42.20;37.40;;;;;5.47;100.00;101273.94;2097489;28;46278;-73
2024/01/14 01:54:44;;;;;;;;;41.75;36.50;;;;;5.50;100.00;101276.59;2096738;28;45994;-72
2024/01/14 01:55:46;;;;;;;;;43.40;37.20;;;;;5.49;100.00;101268.69;2096317;28;45532;-72
2024/01/14 01:56:47;;;;;;;;;36.80;35.80;;;;;5.51;100.00;101264.31;2095638;28;46248;-72
2024/01/14 01:57:47;;;;;;;;;42.80;34.20;;;;;5.53;100.00;101273.09;2095624;28;45884;-72
2024/01/14 01:58:48;;;;;;;;;47.50;37.25;;;;;5.54;100.00;101264.31;2096989;28;47216;-72
2024/01/14 01:59:48;;;;;;;;;53.50;43.50;;;;;5.53;100.00;101260.81;2097502;28;45917;-74
2024/01/14 02:00:50;;;;;;;;;42.50;37.25;;;;;5.54;100.00;101264.31;2096731;28;46274;-72
2024/01/14 02:01:51;;;;;;;;;43.00;40.00;;;;;5.53;100.00;101262.56;2097021;28;46299;-73
2024/01/14 02:02:52;;;;;;;;;48.80;39.20;;;;;5.50;100.00;101263.44;2097152;28;46432;-72
2024/01/14 02:03:54;;;;;;;;;60.75;51.00;;;;;5.52;100.00;101266.06;2095384;28;46388;-73
2024/01/14 02:04:54;;;;;;;;;75.80;59.60;;;;;5.54;100.00;101259.06;2095422;28;46415;-73
2024/01/14 02:05:57;;;;;;;;;81.75;63.25;;;;;5.56;100.00;101255.56;2095931;28;46777;-73
2024/01/14 02:06:58;;;;;;;;;64.00;52.40;;;;;5.59;100.00;101255.63;2096613;28;47883;-73
2024/01/14 02:07:58;;;;;;;;;83.50;65.50;;;;;5.64;100.00;101257.38;2096893;28;46757;-73
2024/01/14 02:08:59;;;;;;;;;118.00;109.00;;;;;5.69;100.00;101250.38;2095141;28;46793;-74
2024/01/14 02:10:00;;;;;;;;;229.50;210.25;;;;;5.75;100.00;101247.81;2091371;28;46157;-73
2024/01/14 02:11:00;;;;;;;;;311.75;287.75;;;;;5.78;100.00;101247.81;2097699;28;45006;-72
2024/01/14 02:12:00;;;;;;;;;365.25;325.25;;;;;5.81;100.00;101253.97;2096242;28;46969;-74
2024/01/14 02:13:01;;;;;;;;;269.50;252.25;;;;;5.83;100.00;101256.63;2095628;28;46749;-72
2024/01/14 02:14:02;;;;;;;;;199.50;176.75;;;;;5.86;100.00;101251.41;2094430;28;45569;-74
2024/01/14 02:15:03;;;;;;;;;147.00;131.33;;;;;5.88;100.00;101249.66;2096444;28;46273;-74
2024/01/14 02:16:03;;;;;;;;;122.67;112.33;;;;;5.90;100.00;101250.56;2093836;28;46325;-73
2024/01/14 02:17:04;;;;;;;;;90.00;73.75;;;;;5.90;100.00;101248.81;2094826;28;46426;-73
2024/01/14 02:18:04;;;;;;;;;93.75;83.25;;;;;5.93;100.00;101254.97;2096976;28;46021;-72
2024/01/14 02:19:04;;;;;;;;;83.50;65.00;;;;;5.96;100.00;101252.34;2095184;28;46347;-73
2024/01/14 02:20:05;;;;;;;;;57.25;46.25;;;;;5.97;100.00;101252.38;2095649;28;45886;-73
2024/01/14 02:21:08;;;;;;;;;61.60;49.80;;;;;5.97;100.00;101248.84;2097097;28;45691;-73
2024/01/14 02:22:14;;;;;;;;;47.60;41.80;;;;;5.98;100.00;101246.22;2096064;28;45134;-73
2024/01/14 02:23:20;;;;;;;;;52.20;44.40;;;;;5.98;100.00;101246.22;2096535;28;45643;-72
2024/01/14 02:24:29;;;;;;;;;51.00;41.80;;;;;5.97;100.00;101239.22;2096758;28;46872;-73
2024/01/14 02:25:31;;;;;;;;;39.80;36.00;;;;;5.96;100.00;101242.69;2092201;28;45528;-73
2024/01/14 02:26:31;;;;;;;;;42.60;39.80;;;;;5.94;100.00;101235.66;2095232;28;45233;-74
2024/01/14 02:27:32;;;;;;;;;40.00;38.25;;;;;5.96;100.00;101231.25;2096706;28;46438;-74
2024/01/14 02:28:32;;;;;;;;;49.25;39.00;;;;;5.93;100.00;101229.50;2092466;28;46250;-73
2024/01/14 02:29:37;;;;;;;;;38.25;37.00;;;;;6.00;100.00;101222.53;2092892;28;46344;-72
2024/01/14 02:30:39;;;;;;;;;41.60;37.60;;;;;5.99;100.00;101229.56;2091444;28;45751;-74
2024/01/14 02:31:39;;;;;;;;;47.20;37.80;;;;;5.98;100.00;101226.91;2098428;28;45638;-72
2024/01/14 02:32:39;;;;;;;;;38.75;37.50;;;;;5.96;100.00;101226.88;2097567;28;48389;-74
2024/01/14 02:33:40;;;;;;;;;42.00;38.00;;;;;5.98;100.00;101230.44;2095721;28;45248;-74
2024/01/14 02:34:40;;;;;;;;;37.75;33.50;;;;;5.97;100.00;101223.41;2095811;28;46086;-73
2024/01/14 02:35:41;;;;;;;;;40.25;36.25;;;;;5.98;100.00;101229.53;2095314;28;46284;-73
2024/01/14 02:36:41;;;;;;;;;33.50;30.75;;;;;5.99;100.00;101232.19;2092986;28;46511;-72
2024/01/14 02:37:45;;;;;;;;;41.00;36.25;;;;;5.99;100.00;101226.03;2089895;28;46783;-72
2024/01/14 02:38:45;;;;;;;;;44.00;36.40;;;;;5.96;100.00;101226.00;2090219;28;46845;-72
2024/01/14 02:39:45;;;;;;;;;42.50;38.00;;;;;5.98;100.00;101216.38;2094994;28;45026;-74
2024/01/14 02:40:46;;;;;;;;;33.25;29.50;;;;;5.98;100.00;101216.38;2096104;28;45464;-72
2024/01/14 02:41:46;;;;;;;;;44.75;40.00;;;;;5.96;100.00;101216.34;2095648;28;45452;-72
2024/01/14 02:42:46;;;;;;;;;46.25;37.75;;;;;5.95;100.00;101213.69;2096242;28;46002;-73
2024/01/14 02:43:47;;;;;;;;;45.50;37.75;;;;;5.95;100.00;101214.56;2097252;28;46404;-73
2024/01/14 02:44:47;;;;;;;;;43.00;37.25;;;;;5.95;100.00;101211.94;2097323;28;45771;-72
2024/01/14 02:45:47;;;;;;;;;42.00;38.25;;;;;5.94;100.00;101204.91;2095844;28;46816;-72
2024/01/14 02:46:47;;;;;;;;;48.50;40.00;;;;;5.92;100.00;101211.94;2096883;28;45866;-72
2024/01/14 02:47:48;;;;;;;;;52.00;41.75;;;;;5.89;100.00;101210.13;2095717;28;46321;-71
2024/01/14 02:48:48;;;;;;;;;6.25;3.25;;;;;5.85;100.00;101211.00;2098086;28;45483;-72
2024/01/14 02:49:48;;;;;;;;;42.75;36.75;;;;;5.83;100.00;101210.09;2096240;28;46452;-72
2024/01/14 02:50:49;;;;;;;;;44.00;38.25;;;;;5.82;100.00;101207.44;2096015;28;46241;-72
2024/01/14 02:51:49;;;;;;;;;44.75;39.75;;;;;5.79;100.00;101199.53;2096753;28;46620;-72
2024/01/14 02:52:50;;;;;;;;;41.00;33.75;;;;;5.80;100.00;101209.19;2096847;28;45461;-73
2024/01/14 02:53:50;;;;;;;;;48.75;39.00;;;;;5.94;100.00;101204.03;2096718;28;46025;-74
2024/01/14 02:54:50;;;;;;;;;43.50;39.75;;;;;5.95;100.00;101198.78;2095582;28;45046;-74
2024/01/14 02:55:51;;;;;;;;;41.00;36.75;;;;;5.97;100.00;101201.41;2096807;28;45034;-73
2024/01/14 02:56:51;;;;;;;;;43.75;37.25;;;;;5.96;100.00;101195.25;2096517;28;46299;-74
2024/01/14 02:57:52;;;;;;;;;47.50;37.50;;;;;5.99;100.00;101191.78;2096607;28;46273;-74
2024/01/14 02:58:52;;;;;;;;;40.60;36.60;;;;;6.00;100.00;101190.91;2096695;28;45882;-73
2024/01/14 02:59:53;;;;;;;;;38.00;32.00;;;;;5.99;100.00;101184.75;2097017;28;45558;-73
2024/01/14 03:00:54;;;;;;;;;41.25;39.00;;;;;5.98;100.00;101179.50;2095726;28;46590;-73
2024/01/14 03:01:54;;;;;;;;;46.60;37.20;;;;;6.00;100.00;101188.28;2096819;28;45621;-74
2024/01/14 03:02:55;;;;;;;;;50.00;41.75;;;;;6.00;99.87;101193.53;2095991;28;46824;-74
2024/01/14 03:03:55;;;;;;;;;37.50;32.00;;;;;5.97;100.00;101188.25;2097810;28;46318;-73
2024/01/14 03:04:55;;;;;;;;;48.50;39.75;;;;;5.94;100.00;101185.59;2096796;28;46681;-73
2024/01/14 03:05:56;;;;;;;;;40.50;36.00;;;;;5.93;99.75;101191.75;2096666;28;45653;-73
2024/01/14 03:06:56;;;;;;;;;43.25;39.50;;;;;5.92;100.00;101188.22;2095986;28;45329;-73
2024/01/14 03:07:56;;;;;;;;;39.25;37.50;;;;;5.93;99.79;101179.44;2095947;28;46490;-74
2024/01/14 03:08:56;;;;;;;;;37.50;36.50;;;;;5.94;100.00;101182.97;2096496;28;45593;-72
2024/01/14 03:09:57;;;;;;;;;47.75;40.00;;;;;5.93;99.91;101176.81;2095693;28;46407;-73
2024/01/14 03:10:57;;;;;;;;;41.50;38.00;;;;;5.84;100.00;101182.00;2095119;28;46333;-73
2024/01/14 03:11:57;;;;;;;;;42.00;35.25;;;;;5.78;100.00;101172.31;2096628;28;45493;-73
2024/01/14 03:12:58;;;;;;;;;38.25;32.25;;;;;5.88;100.00;101181.16;2096233;28;46403;-73
2024/01/14 03:13:58;;;;;;;;;43.25;39.00;;;;;5.90;100.00;101179.44;2096957;28;45699;-73
2024/01/14 03:14:59;;;;;;;;;44.50;39.00;;;;;5.79;100.00;101183.75;2096513;28;45224;-74
2024/01/14 03:15:59;;;;;;;;;45.75;37.25;;;;;5.76;100.00;101175.84;2096567;28;46478;-72
2024/01/14 03:16:59;;;;;;;;;36.00;32.25;;;;;5.74;100.00;101181.09;2096019;28;46708;-74
2024/01/14 03:18:00;;;;;;;;;36.75;35.50;;;;;5.70;100.00;101173.16;2096841;28;44940;-73
2024/01/14 03:19:00;;;;;;;;;30.50;27.75;;;;;5.69;100.00;101169.63;2095684;28;45999;-73
2024/01/14 03:20:01;;;;;;;;;40.00;37.25;;;;;5.68;100.00;101174.91;2096272;28;46339;-73
2024/01/14 03:21:02;;;;;;;;;32.00;31.60;;;;;5.67;100.00;101170.50;2095927;28;45299;-73
2024/01/14 03:22:02;;;;;;;;;35.00;33.50;;;;;5.75;100.00;101174.94;2095833;28;46093;-73
2024/01/14 03:23:03;;;;;;;;;35.25;33.00;;;;;5.69;100.00;101184.56;2096480;28;45909;-73
2024/01/14 03:24:04;;;;;;;;;39.50;35.00;;;;;5.63;100.00;101181.91;2095864;28;46660;-73
2024/01/14 03:25:04;;;;;;;;;39.50;36.00;;;;;5.63;100.00;101181.91;2096548;28;46524;-73
2024/01/14 03:26:04;;;;;;;;;37.50;33.00;;;;;5.59;100.00;101179.25;2097030;28;45782;-72
2024/01/14 03:27:05;;;;;;;;;39.25;36.25;;;;;5.61;100.00;101181.91;2095496;28;45566;-73
2024/01/14 03:28:05;;;;;;;;;44.00;39.50;;;;;5.58;100.00;101180.09;2099253;28;46263;-73
2024/01/14 03:29:05;;;;;;;;;35.00;30.50;;;;;5.58;100.00;101176.59;2099584;28;45425;-73
2024/01/14 03:30:06;;;;;;;;;35.75;31.50;;;;;5.58;100.00;101176.59;2099246;28;45570;-73
2024/01/14 03:31:08;;;;;;;;;35.75;34.00;;;;;5.57;100.00;101174.84;2099039;28;46389;-74
2024/01/14 03:32:08;;;;;;;;;36.60;32.20;;;;;5.57;100.00;101182.72;2091278;28;46319;-73
2024/01/14 03:33:08;;;;;;;;;42.25;36.50;;;;;5.55;100.00;101177.47;2093596;28;46322;-72
2024/01/14 03:34:09;;;;;;;;;32.50;28.00;;;;;5.57;100.00;101177.47;2099283;28;45913;-72
2024/01/14 03:35:09;;;;;;;;;28.25;23.00;;;;;5.56;100.00;101175.69;2099114;28;46582;-71
2024/01/14 03:36:16;;;;;;;;;39.25;36.00;;;;;5.58;100.00;101166.06;2097800;28;45572;-73
2024/01/14 03:37:16;;;;;;;;;27.60;25.60;;;;;5.58;100.00;101173.97;2091005;28;45793;-73
2024/01/14 03:38:16;;;;;;;;;38.25;36.50;;;;;5.58;100.00;101159.03;2096993;28;46006;-73
2024/01/14 03:39:17;;;;;;;;;39.25;35.75;;;;;5.61;100.00;101166.09;2096503;28;45808;-73
2024/01/14 03:40:18;;;;;;;;;42.00;34.25;;;;;5.61;100.00;101163.47;2099203;28;46635;-74
2024/01/14 03:41:18;;;;;;;;;36.60;36.60;;;;;5.61;100.00;101172.25;2098925;28;46275;-73
2024/01/14 03:42:18;;;;;;;;;41.00;35.75;;;;;5.61;100.00;101163.47;2099277;28;45925;-73
2024/01/14 03:43:19;;;;;;;;;39.75;33.00;;;;;5.59;100.00;101166.09;2099237;28;45471;-71
2024/01/14 03:44:19;;;;;;;;;38.75;32.50;;;;;5.59;100.00;101166.09;2097008;28;46821;-72
2024/01/14 03:45:19;;;;;;;;;42.75;37.25;;;;;5.57;100.00;101162.53;2096936;28;46074;-73
2024/01/14 03:46:20;;;;;;;;;40.75;36.50;;;;;5.54;100.00;101167.81;2096774;28;45924;-74
2024/01/14 03:47:20;;;;;;;;;32.00;29.25;;;;;5.50;100.00;101163.41;2098259;28;46698;-73
2024/01/14 03:48:20;;;;;;;;;44.50;37.25;;;;;5.50;100.00;101160.75;2098491;28;45122;-73
2024/01/14 03:49:21;;;;;;;;;38.75;36.75;;;;;5.46;100.00;101161.63;2099838;28;45887;-72
2024/01/14 03:50:21;;;;;;;;;42.25;37.00;;;;;5.44;100.00;101160.72;2099137;28;45884;-73
2024/01/14 03:51:21;;;;;;;;;40.50;37.50;;;;;5.43;100.00;101158.06;2099082;28;45744;-73
2024/01/14 03:52:22;;;;;;;;;35.25;34.75;;;;;5.40;100.00;101148.41;2096132;28;46623;-72
2024/01/14 03:53:23;;;;;;;;;38.75;36.25;;;;;5.41;100.00;101157.19;2098467;28;46256;-73
2024/01/14 03:54:23;;;;;;;;;40.40;37.00;;;;;5.39;100.00;101156.31;2106071;28;47737;-73
2024/01/14 03:55:24;;;;;;;;;34.50;33.50;;;;;5.38;100.00;101155.44;2101664;28;45192;-73
2024/01/14 03:56:24;;;;;;;;;40.25;36.25;;;;;5.37;100.00;101151.03;2105169;28;46276;-73
2024/01/14 03:57:25;;;;;;;;;35.00;33.00;;;;;5.38;100.00;101144.03;2102474;27;45361;-72
2024/01/14 03:58:25;;;;;;;;;38.50;34.25;;;;;5.38;100.00;101147.53;2106816;28;45557;-72
2024/01/14 03:59:25;;;;;;;;;37.75;33.75;;;;;5.36;100.00;101145.75;2105187;27;46534;-73
2024/01/14 04:00:26;;;;;;;;;42.25;34.75;;;;;5.35;100.00;101138.75;2106094;28;46361;-73
2024/01/14 04:01:26;;;;;;;;;34.25;34.00;;;;;5.37;100.00;101131.72;2099206;28;45814;-73
2024/01/14 04:02:26;;;;;;;;;39.50;36.25;;;;;5.41;100.00;101134.38;2104154;28;45729;-73
2024/01/14 04:03:27;;;;;;;;;40.50;36.50;;;;;5.40;100.00;101124.72;2106661;28;45750;-73
2024/01/14 04:04:27;;;;;;;;;45.00;39.25;;;;;5.44;100.00;101137.03;2107436;28;45539;-73
2024/01/14 04:05:27;;;;;;;;;36.25;32.25;;;;;5.46;100.00;101127.41;2106375;28;46525;-73
2024/01/14 04:06:28;;;;;;;;;44.75;38.75;;;;;5.51;100.00;101130.06;2106421;28;46537;-73
2024/01/14 04:07:28;;;;;;;;;38.75;35.50;;;;;5.52;100.00;101118.66;2106282;28;46027;-73
2024/01/14 04:08:29;;;;;;;;;35.50;33.75;;;;;5.52;100.00;101119.53;2106361;28;46729;-73
2024/01/14 04:09:29;;;;;;;;;52.50;38.25;;;;;5.52;100.00;101121.28;2106531;28;45626;-72
2024/01/14 04:10:29;;;;;;;;;39.00;35.75;;;;;5.51;100.00;101122.16;2105726;28;46175;-72
2024/01/14 04:11:29;;;;;;;;;38.75;33.75;;;;;5.49;100.00;101113.38;2107073;27;46613;-73
2024/01/14 04:12:30;;;;;;;;;47.00;38.75;;;;;5.49;100.00;101110.75;2104386;27;46777;-72
2024/01/14 04:13:30;;;;;;;;;42.25;39.50;;;;;5.47;100.00;101109.88;2104934;28;45640;-72
2024/01/14 04:14:30;;;;;;;;;41.00;32.25;;;;;5.48;100.00;101107.25;2106367;28;46736;-72
2024/01/14 04:15:31;;;;;;;;;44.75;37.50;;;;;5.52;100.00;101110.75;2105257;27;45789;-72
2024/01/14 04:16:38;;;;;;;;;40.25;36.50;;;;;5.54;100.00;101102.00;2105909;28;46927;-73
2024/01/14 04:17:39;;;;;;;;;43.80;37.20;;;;;5.57;100.00;101099.38;2106252;28;47285;-73
2024/01/14 04:18:39;;;;;;;;;43.25;34.50;;;;;5.58;100.00;101097.59;2106690;28;45589;-72
2024/01/14 04:19:40;;;;;;;;;37.00;35.50;;;;;5.57;100.00;101096.72;2105809;28;45911;-72
2024/01/14 04:20:40;;;;;;;;;42.75;37.25;;;;;5.55;100.00;101085.31;2106434;28;46343;-72
2024/01/14 04:21:40;;;;;;;;;38.00;34.25;;;;;5.57;100.00;101098.47;2106372;28;45524;-73
2024/01/14 04:22:41;;;;;;;;;45.00;39.00;;;;;5.59;100.00;101096.75;2106756;28;46030;-73
2024/01/14 04:23:41;;;;;;;;;42.25;38.00;;;;;5.58;100.00;101098.50;2106635;27;45535;-72
2024/01/14 04:24:41;;;;;;;;;45.50;39.50;;;;;5.58;100.00;101098.50;2105885;27;45675;-72
2024/01/14 04:25:42;;;;;;;;;37.75;34.25;;;;;5.56;100.00;101094.97;2106477;28;45957;-72
2024/01/14 04:26:42;;;;;;;;;46.50;38.00;;;;;5.56;100.00;101097.59;2106681;28;45507;-72
2024/01/14 04:27:42;;;;;;;;;38.50;35.25;;;;;5.54;100.00;101098.47;2100666;28;46416;-72
2024/01/14 04:28:43;;;;;;;;;42.75;39.75;;;;;5.52;100.00;101098.47;2105948;28;45674;-72
2024/01/14 04:29:43;;;;;;;;;39.00;33.75;;;;;5.51;100.00;101094.09;2106600;27;45845;-73
2024/01/14 04:30:44;;;;;;;;;34.50;32.00;;;;;5.49;100.00;101101.09;2106401;28;45188;-73
2024/01/14 04:31:44;;;;;;;;;39.25;37.50;;;;;5.49;100.00;101092.31;2106703;28;45240;-73
2024/01/14 04:32:44;;;;;;;;;33.25;31.50;;;;;5.46;100.00;101090.56;2099819;28;45095;-73
2024/01/14 04:33:45;;;;;;;;;41.50;36.00;;;;;5.46;100.00;101087.03;2097740;28;45397;-72
2024/01/14 04:34:46;;;;;;;;;45.00;40.40;;;;;5.45;100.00;101094.03;2097769;28;46369;-73
2024/01/14 04:35:46;;;;;;;;;45.75;40.00;;;;;5.45;100.00;101099.31;2098940;28;46702;-73